createdAt,value
2019-06-08T00:01:37.719Z,47.83
2019-06-08T00:04:18.606Z,48.23
2019-06-08T00:06:49.896Z,47.74
2019-06-08T00:09:22.558Z,47.84
2019-06-08T00:11:54.145Z,48.16
2019-06-08T00:14:29.127Z,48.28
2019-06-08T00:17:00.303Z,48.42
2019-06-08T00:19:33.421Z,48.26
2019-06-08T00:22:04.822Z,48.58
2019-06-08T00:24:36.488Z,48.51
2019-06-08T00:27:08.087Z,48.56
2019-06-08T00:29:39.376Z,48.24
2019-06-08T00:32:10.637Z,48.62
2019-06-08T00:34:42.037Z,48.89
2019-06-08T00:37:14.546Z,49.07
2019-06-08T00:39:46.665Z,49.94
2019-06-08T00:42:19.170Z,50.62
2019-06-08T00:44:50.678Z,51.34
2019-06-08T00:47:24.707Z,52.14
2019-06-08T00:49:56.198Z,53.05
2019-06-08T00:52:27.391Z,52.59
2019-06-08T00:54:58.694Z,52.90
2019-06-08T00:57:30.249Z,52.93
2019-06-08T01:00:09.717Z,53.10
2019-06-08T01:02:35.996Z,52.77
2019-06-08T01:05:08.191Z,52.50
2019-06-08T01:07:39.585Z,52.33
2019-06-08T01:10:11.903Z,52.77
2019-06-08T01:12:43.169Z,52.70
2019-06-08T01:15:15.343Z,52.92
2019-06-08T01:18:01.553Z,53.22
2019-06-08T01:20:21.552Z,53.63
2019-06-08T01:22:53.676Z,54.27
2019-06-08T01:25:25.801Z,54.41
2019-06-08T01:27:57.108Z,54.87
2019-06-08T01:30:30.420Z,55.23
2019-06-08T01:33:01.800Z,55.57
2019-06-08T01:35:33.130Z,55.64
2019-06-08T01:38:04.465Z,56.04
2019-06-08T01:40:35.704Z,56.00
2019-06-08T01:43:07.275Z,56.21
2019-06-08T01:45:38.575Z,56.40
2019-06-08T01:48:19.936Z,56.32
2019-06-08T01:50:42.834Z,56.57
2019-06-08T01:53:14.050Z,56.63
2019-06-08T01:55:45.285Z,56.88
2019-06-08T01:58:16.525Z,56.75
2019-06-08T02:00:48.083Z,55.88
2019-06-08T02:03:19.409Z,55.25
2019-06-08T02:05:50.719Z,54.51
2019-06-08T02:08:21.931Z,54.78
2019-06-08T02:10:53.206Z,55.04
2019-06-08T02:13:24.992Z,54.97
2019-06-08T02:15:57.219Z,54.97
2019-06-08T02:18:41.559Z,54.64
2019-06-08T02:21:03.250Z,54.81
2019-06-08T02:23:35.155Z,55.13
2019-06-08T02:26:07.385Z,54.42
2019-06-08T02:28:38.578Z,54.06
2019-06-08T02:31:10.655Z,53.65
2019-06-08T02:33:41.918Z,54.18
2019-06-08T02:36:13.167Z,54.35
2019-06-08T02:38:44.445Z,54.95
2019-06-08T02:41:15.900Z,55.48
2019-06-08T02:43:47.341Z,55.53
2019-06-08T02:46:18.563Z,55.30
2019-06-08T02:49:03.512Z,55.64
2019-06-08T02:51:23.660Z,56.49
2019-06-08T02:53:55.059Z,55.73
2019-06-08T02:56:29.839Z,56.51
2019-06-08T02:59:04.185Z,56.07
2019-06-08T03:01:38.256Z,56.85
2019-06-08T03:04:09.182Z,56.44
2019-06-08T03:06:43.999Z,55.92
2019-06-08T03:09:16.726Z,54.88
2019-06-08T03:11:50.652Z,54.05
2019-06-08T03:14:24.851Z,53.52
2019-06-08T03:16:56.659Z,53.32
2019-06-08T03:19:27.881Z,53.56
2019-06-08T03:21:59.401Z,53.84
2019-06-08T03:24:32.489Z,54.21
2019-06-08T03:27:03.726Z,53.40
2019-06-08T03:29:37.074Z,53.05
2019-06-08T03:32:07.928Z,53.61
2019-06-08T03:34:46.820Z,54.08
2019-06-08T03:37:12.158Z,54.61
2019-06-08T03:39:45.166Z,55.08
2019-06-08T03:42:17.025Z,55.92
2019-06-08T03:44:48.330Z,56.34
2019-06-08T03:47:19.643Z,55.95
2019-06-08T03:49:56.668Z,56.00
2019-06-08T03:52:23.881Z,56.58
2019-06-08T03:54:55.073Z,57.10
2019-06-08T03:57:26.384Z,57.04
2019-06-08T03:59:57.652Z,56.26
2019-06-08T04:02:28.910Z,55.91
2019-06-08T04:05:00.162Z,55.16
2019-06-08T04:07:31.575Z,54.67
2019-06-08T04:10:02.994Z,54.46
2019-06-08T04:12:34.819Z,54.53
2019-06-08T04:15:07.698Z,54.61
2019-06-08T04:17:39.777Z,55.08
2019-06-08T04:20:12.425Z,55.05
2019-06-08T04:22:47.225Z,55.25
2019-06-08T04:25:20.580Z,55.33
2019-06-08T04:27:52.004Z,55.64
2019-06-08T04:30:27.223Z,55.93
2019-06-08T04:32:58.925Z,55.19
2019-06-08T04:35:30.165Z,54.74
2019-06-08T04:38:01.776Z,54.14
2019-06-08T04:40:33.051Z,54.03
2019-06-08T04:43:04.495Z,52.26
2019-06-08T04:45:35.819Z,52.40
2019-06-08T04:48:09.706Z,51.91
2019-06-08T04:50:40.973Z,52.05
2019-06-08T04:53:12.777Z,50.83
2019-06-08T04:55:46.509Z,50.35
2019-06-08T04:58:18.345Z,49.41
2019-06-08T05:00:50.876Z,49.63
2019-06-08T05:03:22.475Z,47.99
2019-06-08T05:05:53.791Z,48.26
2019-06-08T05:08:25.252Z,46.77
2019-06-08T05:10:56.483Z,47.80
2019-06-08T05:13:27.824Z,50.77
2019-06-08T05:15:59.014Z,48.12
2019-06-08T05:18:30.867Z,52.13
2019-06-08T05:21:02.705Z,53.03
2019-06-08T05:23:33.987Z,53.95
2019-06-08T05:26:05.902Z,53.29
2019-06-08T05:28:37.237Z,49.84
2019-06-08T05:31:09.006Z,48.65
2019-06-08T05:33:43.339Z,48.39
2019-06-08T05:36:15.621Z,48.08
2019-06-08T05:38:47.661Z,44.29
2019-06-08T05:41:18.912Z,44.87
2019-06-08T05:43:50.338Z,48.44
2019-06-08T05:46:21.698Z,46.10
2019-06-08T05:48:53.672Z,45.08
2019-06-08T05:51:25.240Z,47.61
2019-06-08T05:53:57.200Z,44.53
2019-06-08T05:56:30.054Z,43.90
2019-06-08T05:59:01.946Z,39.38
2019-06-08T06:01:34.651Z,39.07
2019-06-08T06:04:07.827Z,38.47
2019-06-08T06:06:40.435Z,39.10
2019-06-08T06:09:12.565Z,42.97
2019-06-08T06:11:44.776Z,44.30
2019-06-08T06:14:16.967Z,44.51
2019-06-08T06:20:22.441Z,41.07
2019-06-08T06:22:58.512Z,41.88
2019-06-08T06:25:29.579Z,41.62
2019-06-08T06:28:06.100Z,41.26
2019-06-08T06:30:36.977Z,40.61
2019-06-08T06:33:09.702Z,42.19
2019-06-08T06:35:50.068Z,42.87
2019-06-08T06:38:21.024Z,44.47
2019-06-08T06:40:54.487Z,39.11
2019-06-08T06:46:30.763Z,41.67
2019-06-08T06:49:02.801Z,41.16
2019-06-08T06:55:20.106Z,40.13
2019-06-08T06:57:53.837Z,40.00
2019-06-08T07:03:59.320Z,39.71
2019-06-08T07:06:31.357Z,38.57
2019-06-08T07:09:10.260Z,37.79
2019-06-08T07:11:42.276Z,36.06
2019-06-08T07:14:17.246Z,37.15
2019-06-08T07:16:49.879Z,37.38
2019-06-08T07:22:50.213Z,36.97
2019-06-08T07:28:10.167Z,36.00
2019-06-08T07:30:47.712Z,36.18
2019-06-08T07:33:21.363Z,36.55
2019-06-08T07:36:01.048Z,35.52
2019-06-08T07:38:35.060Z,37.27
2019-06-08T07:44:18.980Z,39.91
2019-06-08T07:46:53.749Z,38.74
2019-06-08T07:49:25.799Z,39.50
2019-06-08T07:52:08.309Z,39.01
2019-06-08T07:54:31.350Z,37.12
2019-06-08T07:57:03.132Z,37.33
2019-06-08T07:59:34.962Z,37.47
2019-06-08T08:02:07.108Z,38.57
2019-06-08T08:04:39.167Z,39.58
2019-06-08T08:07:11.206Z,40.61
2019-06-08T08:09:43.179Z,42.08
2019-06-08T08:12:15.124Z,41.79
2019-06-08T08:14:47.101Z,41.07
2019-06-08T08:17:18.925Z,39.21
2019-06-08T08:19:55.071Z,40.10
2019-06-08T08:22:29.466Z,41.42
2019-06-08T08:25:04.595Z,42.55
2019-06-08T08:27:34.069Z,41.76
2019-06-08T08:30:09.332Z,42.74
2019-06-08T08:32:41.167Z,42.87
2019-06-08T08:35:14.086Z,44.80
2019-06-08T08:37:47.411Z,42.11
2019-06-08T08:40:19.599Z,43.36
2019-06-08T08:42:52.366Z,44.69
2019-06-08T08:45:27.484Z,43.68
2019-06-08T08:48:14.870Z,41.54
2019-06-08T08:50:32.599Z,44.26
2019-06-08T08:53:04.646Z,42.08
2019-06-08T08:55:37.968Z,43.71
2019-06-08T08:58:09.987Z,45.48
2019-06-08T09:00:41.890Z,44.20
2019-06-08T09:03:27.868Z,44.04
2019-06-08T09:05:48.270Z,44.81
2019-06-08T09:08:23.167Z,44.17
2019-06-08T09:10:55.358Z,44.03
2019-06-08T09:13:28.239Z,44.19
2019-06-08T09:16:03.934Z,42.34
2019-06-08T09:18:37.438Z,44.18
2019-06-08T09:21:11.088Z,44.26
2019-06-08T09:23:42.943Z,44.51
2019-06-08T09:26:17.602Z,41.47
2019-06-08T09:28:49.438Z,43.82
2019-06-08T09:31:21.356Z,40.05
2019-06-08T09:34:02.576Z,43.40
2019-06-08T09:36:28.818Z,43.64
2019-06-08T09:39:04.456Z,43.94
2019-06-08T09:41:38.067Z,43.75
2019-06-08T09:44:12.129Z,45.22
2019-06-08T09:46:44.283Z,43.50
2019-06-08T09:49:18.560Z,44.27
2019-06-08T09:51:50.217Z,45.33
2019-06-08T09:54:22.035Z,44.50
2019-06-08T09:56:54.053Z,43.32
2019-06-08T09:59:28.426Z,43.08
2019-06-08T10:02:05.622Z,43.30
2019-06-08T10:04:33.379Z,46.11
2019-06-08T10:07:09.694Z,46.51
2019-06-08T10:09:43.246Z,46.66
2019-06-08T10:12:14.124Z,46.62
2019-06-08T10:14:48.776Z,47.24
2019-06-08T10:17:21.076Z,47.33
2019-06-08T10:19:54.516Z,44.97
2019-06-08T10:22:28.295Z,45.46
2019-06-08T10:25:03.727Z,45.66
2019-06-08T10:27:33.620Z,45.30
2019-06-08T10:30:10.574Z,43.30
2019-06-08T10:32:42.439Z,43.71
2019-06-08T10:35:14.773Z,43.24
2019-06-08T10:37:47.846Z,44.75
2019-06-08T10:40:22.429Z,46.13
2019-06-08T10:42:54.304Z,45.65
2019-06-08T10:45:28.439Z,45.89
2019-06-08T10:48:01.499Z,45.75
2019-06-08T10:50:33.415Z,47.61
2019-06-08T10:53:10.885Z,46.57
2019-06-08T10:55:42.298Z,45.45
2019-06-08T10:58:14.252Z,42.57
2019-06-08T11:00:48.056Z,42.43
2019-06-08T11:03:19.690Z,45.06
2019-06-08T11:05:51.773Z,43.96
2019-06-08T11:08:24.418Z,43.28
2019-06-08T11:10:57.914Z,41.95
2019-06-08T11:13:30.731Z,42.22
2019-06-08T11:16:04.421Z,39.17
2019-06-08T11:18:36.827Z,40.34
2019-06-08T11:21:12.578Z,39.70
2019-06-08T11:23:42.773Z,37.95
2019-06-08T11:26:20.879Z,37.44
2019-06-08T11:28:51.166Z,38.90
2019-06-08T11:31:23.536Z,39.40
2019-06-08T11:33:58.483Z,39.68
2019-06-08T11:36:29.638Z,39.00
2019-06-08T11:39:02.544Z,39.64
2019-06-08T11:41:36.103Z,39.81
2019-06-08T11:44:13.634Z,42.76
2019-06-08T11:46:44.442Z,43.77
2019-06-08T11:49:18.471Z,43.95
2019-06-08T11:51:49.019Z,42.44
2019-06-08T11:54:32.989Z,43.37
2019-06-08T11:57:00.684Z,44.60
2019-06-08T11:59:34.395Z,42.11
2019-06-08T12:02:09.034Z,41.87
2019-06-08T12:04:39.990Z,40.04
2019-06-08T12:07:13.705Z,41.51
2019-06-08T12:09:49.919Z,40.96
2019-06-08T12:12:21.397Z,40.42
2019-06-08T12:14:54.455Z,43.49
2019-06-08T12:17:28.247Z,40.06
2019-06-08T12:20:00.445Z,41.74
2019-06-08T12:22:47.839Z,41.47
2019-06-08T12:25:20.388Z,41.23
2019-06-08T12:27:52.866Z,41.64
2019-06-08T12:30:26.247Z,40.94
2019-06-08T12:32:59.730Z,40.89
2019-06-08T12:35:31.664Z,40.94
2019-06-08T12:38:03.776Z,39.94
2019-06-08T12:40:38.321Z,42.58
2019-06-08T12:43:11.725Z,41.41
2019-06-08T12:45:43.583Z,40.28
2019-06-08T12:48:19.561Z,43.00
2019-06-08T12:50:49.222Z,42.27
2019-06-08T12:53:22.994Z,40.76
2019-06-08T12:55:54.759Z,40.71
2019-06-08T12:58:28.212Z,40.41
2019-06-08T13:01:01.584Z,40.48
2019-06-08T13:03:33.608Z,42.00
2019-06-08T13:06:08.841Z,41.10
2019-06-08T13:08:39.599Z,41.20
2019-06-08T13:11:16.493Z,42.60
2019-06-08T13:13:49.041Z,42.59
2019-06-08T13:16:24.213Z,42.69
2019-06-08T13:18:54.806Z,42.29
2019-06-08T13:21:34.681Z,42.91
2019-06-08T13:24:00.545Z,46.34
2019-06-08T13:26:32.708Z,43.90
2019-06-08T13:29:04.816Z,46.44
2019-06-08T13:31:38.316Z,43.80
2019-06-08T13:34:13.014Z,42.12
2019-06-08T13:36:44.363Z,43.22
2019-06-08T13:39:19.570Z,43.71
2019-06-08T13:41:52.490Z,45.04
2019-06-08T13:44:24.442Z,43.97
2019-06-08T13:46:57.782Z,43.57
2019-06-08T13:49:30.933Z,42.74
2019-06-08T13:52:03.062Z,43.22
2019-06-08T13:54:35.051Z,42.82
2019-06-08T13:57:08.500Z,43.19
2019-06-08T13:59:40.524Z,41.28
2019-06-08T14:02:13.540Z,42.15
2019-06-08T14:04:46.776Z,41.40
2019-06-08T14:07:24.512Z,40.52
2019-06-08T14:09:52.864Z,41.20
2019-06-08T14:12:25.791Z,42.60
2019-06-08T14:14:58.568Z,42.55
2019-06-08T14:17:32.522Z,41.00
2019-06-08T14:20:08.058Z,40.43
2019-06-08T14:22:40.261Z,40.68
2019-06-08T14:25:12.368Z,42.99
2019-06-08T14:27:44.199Z,42.11
2019-06-08T14:30:18.221Z,41.64
2019-06-08T14:32:49.617Z,43.29
2019-06-08T14:35:23.788Z,42.74
2019-06-08T14:37:57.799Z,43.68
2019-06-08T14:40:32.671Z,44.30
2019-06-08T14:43:02.485Z,42.98
2019-06-08T14:45:34.373Z,42.71
2019-06-08T14:48:07.406Z,44.24
2019-06-08T14:50:41.048Z,45.04
2019-06-08T14:53:13.020Z,45.35
2019-06-08T14:55:44.922Z,44.05
2019-06-08T14:58:19.179Z,45.24
2019-06-08T15:00:50.609Z,43.48
2019-06-08T15:03:23.119Z,45.02
2019-06-08T15:05:54.936Z,44.97
2019-06-08T15:08:28.618Z,45.86
2019-06-08T15:11:00.317Z,44.20
2019-06-08T15:13:32.105Z,44.89
2019-06-08T15:16:04.008Z,45.46
2019-06-08T15:18:38.533Z,46.20
2019-06-08T15:21:11.974Z,46.39
2019-06-08T15:23:44.731Z,49.00
2019-06-08T15:26:23.999Z,46.43
2019-06-08T15:28:50.567Z,47.91
2019-06-08T15:31:23.061Z,47.86
2019-06-08T15:33:55.039Z,49.51
2019-06-08T15:36:29.517Z,46.89
2019-06-08T15:39:00.401Z,47.15
2019-06-08T15:41:33.852Z,47.21
2019-06-08T15:44:05.781Z,47.13
2019-06-08T15:46:37.935Z,46.12
2019-06-08T15:49:11.399Z,47.09
2019-06-08T15:51:43.339Z,48.95
2019-06-08T15:54:15.167Z,48.12
2019-06-08T15:56:51.356Z,47.86
2019-06-08T15:59:20.608Z,48.24
2019-06-08T16:01:53.744Z,47.54
2019-06-08T16:04:25.792Z,47.61
2019-06-08T16:06:57.687Z,48.14
2019-06-08T16:09:29.976Z,48.25
2019-06-08T16:12:01.866Z,48.99
2019-06-08T16:14:34.925Z,47.51
2019-06-08T16:17:07.038Z,47.93
2019-06-08T16:19:39.094Z,46.26
2019-06-08T16:22:11.043Z,47.68
2019-06-08T16:24:42.891Z,48.41
2019-06-08T16:27:14.882Z,47.77
2019-06-08T16:29:46.762Z,48.70
2019-06-08T16:32:18.590Z,48.46
2019-06-08T16:34:50.546Z,47.71
2019-06-08T16:37:22.452Z,47.33
2019-06-08T16:39:54.564Z,47.82
2019-06-08T16:42:27.791Z,47.76
2019-06-08T16:44:59.667Z,47.95
2019-06-08T16:47:31.492Z,48.17
2019-06-08T16:50:03.835Z,48.59
2019-06-08T16:52:36.683Z,48.45
2019-06-08T16:55:08.915Z,49.09
2019-06-08T16:57:41.277Z,49.12
2019-06-08T17:00:31.399Z,48.88
2019-06-08T17:02:47.555Z,49.00
2019-06-08T17:05:21.019Z,48.93
2019-06-08T17:07:55.939Z,49.22
2019-06-08T17:10:27.904Z,49.52
2019-06-08T17:13:00.107Z,49.94
2019-06-08T17:15:32.063Z,50.20
2019-06-08T17:18:04.269Z,50.55
2019-06-08T17:20:36.294Z,51.72
2019-06-08T17:23:08.426Z,52.79
2019-06-08T17:25:41.543Z,53.68
2019-06-08T17:28:13.401Z,54.68
2019-06-08T17:30:46.653Z,55.57
2019-06-08T17:33:18.937Z,55.87
2019-06-08T17:35:50.826Z,56.57
2019-06-08T17:38:22.847Z,57.27
2019-06-08T17:40:54.724Z,57.94
2019-06-08T17:43:26.617Z,57.20
2019-06-08T17:45:58.916Z,57.40
2019-06-08T17:48:30.790Z,57.24
2019-06-08T17:51:02.826Z,56.73
2019-06-08T17:53:35.163Z,56.54
2019-06-08T17:56:07.726Z,56.81
2019-06-08T17:58:39.691Z,57.49
2019-06-08T18:01:11.835Z,57.99
2019-06-08T18:03:44.730Z,58.51
2019-06-08T18:06:17.994Z,58.52
2019-06-08T18:08:49.833Z,59.13
2019-06-08T18:11:21.912Z,59.09
2019-06-08T18:13:54.770Z,58.93
2019-06-08T18:16:27.853Z,59.18
2019-06-08T18:18:59.997Z,59.14
2019-06-08T18:28:46.196Z,59.72
2019-06-08T18:34:53.681Z,60.29
2019-06-08T18:37:25.181Z,60.31
2019-06-08T18:39:57.858Z,60.38
2019-06-08T18:42:29.562Z,60.20
2019-06-08T18:45:02.513Z,60.52
2019-06-08T18:47:40.327Z,60.29
2019-06-08T18:50:14.000Z,60.34
2019-06-08T18:52:47.283Z,59.54
2019-06-08T18:55:23.420Z,59.79
2019-06-08T18:57:52.069Z,60.04
2019-06-08T19:00:30.648Z,59.06
2019-06-08T19:05:52.151Z,59.70
2019-06-08T19:08:24.509Z,60.00
2019-06-08T19:10:58.171Z,60.60
2019-06-08T19:13:30.476Z,60.91
2019-06-08T19:16:02.774Z,62.06
2019-06-08T19:18:34.207Z,62.60
2019-06-08T19:21:07.769Z,62.52
2019-06-08T19:23:41.847Z,62.90
2019-06-08T19:26:12.003Z,62.80
2019-06-08T19:28:47.811Z,63.16
2019-06-08T19:31:23.598Z,63.12
2019-06-08T19:33:53.653Z,62.74
2019-06-08T19:36:28.568Z,61.45
2019-06-08T19:39:07.010Z,61.31
2019-06-08T19:41:39.419Z,61.13
2019-06-08T19:44:13.398Z,61.03
2019-06-08T19:46:47.538Z,60.85
2019-06-08T19:49:17.797Z,59.87
2019-06-08T19:51:53.461Z,60.92
2019-06-08T19:54:23.667Z,61.82
2019-06-08T19:56:57.249Z,61.80
2019-06-08T19:59:28.599Z,60.74
2019-06-08T20:02:00.064Z,61.71
2019-06-08T20:04:31.651Z,61.60
2019-06-08T20:07:03.578Z,62.98
2019-06-08T20:09:37.623Z,63.48
2019-06-08T20:12:08.992Z,63.48
2019-06-08T20:14:41.314Z,64.62
2019-06-08T20:17:13.574Z,62.59
2019-06-08T20:19:48.044Z,62.37
2019-06-08T20:22:19.276Z,61.96
2019-06-08T20:24:55.325Z,62.01
2019-06-08T20:27:24.854Z,61.89
2019-06-08T20:29:58.208Z,61.84
2019-06-08T20:32:31.295Z,61.52
2019-06-08T20:35:03.283Z,60.69
2019-06-08T20:37:37.672Z,61.27
2019-06-08T20:40:14.182Z,62.28
2019-06-08T20:42:49.074Z,62.34
2019-06-08T20:45:19.684Z,62.87
2019-06-08T20:47:52.687Z,62.90
2019-06-08T20:50:27.129Z,62.88
2019-06-08T20:52:58.840Z,62.24
2019-06-08T20:55:30.159Z,61.78
2019-06-08T20:58:02.096Z,61.05
2019-06-08T21:00:33.416Z,61.06
2019-06-08T21:03:05.220Z,60.24
2019-06-08T21:05:37.075Z,62.95
2019-06-08T21:08:11.516Z,64.07
2019-06-08T21:10:46.040Z,65.83
2019-06-08T21:13:18.234Z,68.03
2019-06-08T21:15:53.822Z,69.92
2019-06-08T21:18:22.528Z,70.26
2019-06-08T21:20:55.856Z,70.02
2019-06-08T21:23:31.895Z,70.38
2019-06-08T21:26:03.337Z,70.22
2019-06-08T21:28:35.208Z,70.84
2019-06-08T21:31:08.492Z,71.76
2019-06-08T21:33:39.833Z,71.43
2019-06-08T21:36:11.773Z,71.32
2019-06-08T21:38:43.563Z,70.50
2019-06-08T21:41:17.194Z,70.38
2019-06-08T21:43:53.075Z,70.51
2019-06-08T21:46:27.531Z,70.24
2019-06-08T21:49:08.839Z,68.27
2019-06-08T21:51:51.491Z,67.53
2019-06-08T21:54:30.199Z,65.82
2019-06-08T21:57:06.682Z,67.40
2019-06-08T21:59:49.925Z,68.05
2019-06-08T22:02:27.105Z,68.71
2019-06-08T22:05:04.653Z,68.76
2019-06-08T22:07:42.514Z,69.79
2019-06-08T22:10:19.783Z,70.83
2019-06-08T22:12:53.539Z,71.86
2019-06-08T22:15:27.118Z,72.76
2019-06-08T22:18:00.156Z,73.43
2019-06-08T22:20:38.347Z,73.85
2019-06-08T22:23:10.271Z,74.52
2019-06-08T22:25:42.022Z,73.93
2019-06-08T22:28:17.585Z,73.90
2019-06-08T22:30:48.527Z,73.49
2019-06-08T22:33:22.630Z,73.48
2019-06-08T22:35:54.197Z,73.06
2019-06-08T22:38:25.638Z,72.94
2019-06-08T22:40:57.648Z,73.31
2019-06-08T22:43:31.903Z,72.12
2019-06-08T22:46:08.062Z,72.20
2019-06-08T22:48:38.951Z,72.45
2019-06-08T22:51:10.151Z,72.39
2019-06-08T22:53:41.419Z,72.39
2019-06-08T22:56:18.316Z,72.83
2019-06-08T22:58:49.828Z,73.12
2019-06-08T23:01:21.342Z,73.59
2019-06-08T23:03:53.664Z,73.86
2019-06-08T23:06:28.139Z,74.82
2019-06-08T23:09:01.456Z,76.59
2019-06-08T23:11:33.750Z,78.05
2019-06-08T23:14:10.351Z,78.00
2019-06-08T23:16:39.716Z,77.59
2019-06-08T23:19:12.870Z,78.01
2019-06-08T23:21:47.501Z,77.47
2019-06-08T23:24:19.205Z,77.06
2019-06-08T23:26:52.306Z,75.53
2019-06-08T23:29:23.649Z,74.91
2019-06-08T23:31:54.894Z,73.35
2019-06-08T23:34:27.661Z,72.22
2019-06-08T23:37:05.852Z,72.21
2019-06-08T23:39:37.398Z,71.71
2019-06-08T23:42:08.209Z,71.23
2019-06-08T23:44:41.881Z,70.60
2019-06-08T23:47:17.911Z,69.72
2019-06-08T23:49:50.881Z,69.78
2019-06-08T23:52:22.479Z,70.93
2019-06-08T23:54:53.956Z,71.54
2019-06-08T23:57:27.178Z,70.45
